Aérodrome :
LOGIN :

S'inscrire | Disclaimer

   EN    FR    IT 

 










Légende :    VFR   VFR Marginal   IFR   IFR Intensif   IFR Très Intensif
Visi : 
Plafond : 
>= 8 km
>= 3000ft
5 à 8 km
1000 à 3000 ft
1500m à 5 km
500 à 1000 ft
800 à 1500m
200 à 500 ft
< 800m
< 200 ft
Symboles :   Orages  Brouillard  Fortes neiges  Fortes précipitations  Vent > 20 kt
SIGMETs :   Divers  Orages  Givrage  Turbulence  Onde Orograph.  Cendres Volcan.







- Altitude de l'aérodrome : 359 ft
- Code IATA : BVA
- Voir les cartes d'approche


LFOB - Beauvais

DERNIER METAR :
  • 261730Z AUTO 35010KT 9999 FEW031 BKN038 BKN066 06/02 Q1015 TEMPO 4000 SHRA BKN040TCU

METARs EXPIRÉS :
  • 261700Z AUTO 35009KT 330V030 9999 FEW026/// SCT047/// BKN072/// ///TCU 07/02 Q1015 TEMPO VRB20G30KT 2000 TSRAGS BKN030CB
  • 261630Z AUTO 31011KT 280V350 9999 FEW028/// SCT042/// BKN066/// ///TCU 08/04 Q1015 TEMPO VRB20G30KT 2000 TSRAGS BKN030CB
  • 261600Z AUTO 31013KT 9999 FEW035/// SCT072/// ///CB 08/03 Q1015 TEMPO VRB20G30KT 2000 TSRAGS
  • 261530Z AUTO 33014KT 9999 ///TCU 09/04 Q1015 TEMPO VRB20G30KT 2000 TSRAGS BKN030CB
  • 261500Z AUTO 32007KT 9999 FEW001/// SCT078/// BKN100/// ///TCU 07/04 Q1015 TEMPO VRB20G30KT 2000 TSRAGS BKN030CB

TAF TAF LFOB
Valide du 26 à 18h jusqu'au 27 à 18h UTC


261700Z 2618/2718 36013KT 9999 BKN040
TEMPO 2618/2620 4000 SHRA BKN040TCU
BECMG 2620/2622 VRB02KT
BECMG 2708/2710 36012KT
TEMPO 2710/2713 4000 SHRA BKN030TCU
ATIS : +33 3 44 11 49 28
Pas de NOTAMs connus pour ce terrain.



MET'MAP, la Météo Aéronautique d'un coup d'oeil ! - Copyright ORBIFLY Décembre 2007 - Disclaimer

ORBIFLY MET'MAP TEAM :

Programmation & Développement : Alexandra Zaïnal
Conception & Développement : Baudouin d'Aumeries
Co-Programmation & Développement : Marc-Olivier Méhu
Soutien technique & logistique : Manuel Goepfert

Contact : metmap@orbifly.com




SOURCES & CREDITS :

   NOAA